createdAt,value
2023-02-05T00:02:13.745Z,13.30
2023-02-05T00:04:40.940Z,8.10
2023-02-05T00:07:08.408Z,9.83
2023-02-05T00:09:36.860Z,8.20
2023-02-05T00:12:04.093Z,6.83
2023-02-05T00:14:31.219Z,4.80
2023-02-05T00:16:58.745Z,11.93
2023-02-05T00:19:25.886Z,7.70
2023-02-05T00:21:53.019Z,6.53
2023-02-05T00:24:20.159Z,4.13
2023-02-05T00:26:47.294Z,7.37
2023-02-05T00:29:14.408Z,10.17
2023-02-05T00:31:41.718Z,10.87
2023-02-05T00:34:08.873Z,9.20
2023-02-05T00:36:35.981Z,8.43
2023-02-05T00:39:03.147Z,8.67
2023-02-05T00:41:30.292Z,10.37
2023-02-05T00:43:57.409Z,8.07
2023-02-05T00:46:24.597Z,10.57
2023-02-05T00:48:51.723Z,10.27
2023-02-05T00:51:18.865Z,10.17
2023-02-05T00:53:46.038Z,9.17
2023-02-05T00:56:13.223Z,9.77
2023-02-05T00:58:40.590Z,9.07
2023-02-05T01:01:07.764Z,5.77
2023-02-05T01:03:34.969Z,5.00
2023-02-05T01:06:03.389Z,7.83
2023-02-05T01:08:30.633Z,5.47
2023-02-05T01:10:57.799Z,7.13
2023-02-05T01:13:24.922Z,8.23
2023-02-05T01:15:52.081Z,6.30
2023-02-05T01:18:19.235Z,10.83
2023-02-05T01:20:46.354Z,5.00
2023-02-05T01:23:13.484Z,7.37
2023-02-05T01:25:40.597Z,16.47
2023-02-05T01:28:07.794Z,3.07
2023-02-05T01:30:35.463Z,5.27
2023-02-05T01:33:02.919Z,3.00
2023-02-05T01:35:30.049Z,4.70
2023-02-05T01:37:57.224Z,2.00
2023-02-05T01:40:24.331Z,3.47
2023-02-05T01:42:51.518Z,3.60
2023-02-05T01:45:32.642Z,2.87
2023-02-05T01:48:00.840Z,1.77
2023-02-05T01:50:30.995Z,6.80
2023-02-05T01:52:58.534Z,6.00
2023-02-05T01:55:25.639Z,4.57
2023-02-05T01:57:52.752Z,4.90
2023-02-05T02:00:19.993Z,2.67
2023-02-05T02:02:47.156Z,4.57
2023-02-05T02:05:15.722Z,2.93
2023-02-05T02:07:42.913Z,4.57
2023-02-05T02:10:10.445Z,4.20
2023-02-05T02:12:38.052Z,3.40
2023-02-05T02:15:10.383Z,3.40
2023-02-05T02:17:40.816Z,4.77
2023-02-05T02:20:09.281Z,3.40
2023-02-05T02:23:03.658Z,2.60
2023-02-05T02:25:39.844Z,2.23
2023-02-05T02:28:08.502Z,1.70
2023-02-05T02:30:38.390Z,2.87
2023-02-05T02:33:06.282Z,2.33
2023-02-05T02:35:47.513Z,2.83
2023-02-05T02:38:28.625Z,2.27
2023-02-05T02:40:56.553Z,3.23
2023-02-05T02:43:35.425Z,3.03
2023-02-05T02:46:06.565Z,2.63
2023-02-05T02:48:33.813Z,5.37
2023-02-05T02:51:01.312Z,2.60
2023-02-05T02:53:29.378Z,3.93
2023-02-05T02:55:56.618Z,13.17
2023-02-05T02:58:28.602Z,8.27
2023-02-05T03:00:55.847Z,7.43
2023-02-05T03:03:23.191Z,10.37
2023-02-05T03:05:50.355Z,12.73
2023-02-05T03:08:24.867Z,13.93
2023-02-05T03:10:54.537Z,11.93
2023-02-05T03:13:21.652Z,10.77
2023-02-05T03:15:48.873Z,12.80
2023-02-05T03:18:15.986Z,8.43
2023-02-05T03:20:45.318Z,11.27
2023-02-05T03:23:12.507Z,14.77
2023-02-05T03:25:39.678Z,15.87
2023-02-05T03:28:06.808Z,10.87
2023-02-05T03:30:45.868Z,14.77
2023-02-05T03:33:22.034Z,15.60
2023-02-05T03:35:53.647Z,14.30
2023-02-05T03:38:33.836Z,22.23
2023-02-05T03:41:04.988Z,23.23
2023-02-05T03:43:56.967Z,25.17
2023-02-05T03:46:24.110Z,21.87
2023-02-05T03:48:56.012Z,24.00
2023-02-05T03:51:23.532Z,22.83
2023-02-05T03:53:59.810Z,24.87
2023-02-05T03:56:29.229Z,15.73
2023-02-05T03:58:56.612Z,15.53
2023-02-05T04:01:23.755Z,23.00
2023-02-05T04:03:50.894Z,17.13
2023-02-05T04:06:18.090Z,17.13
2023-02-05T04:08:45.234Z,12.53
2023-02-05T04:11:12.356Z,14.27
2023-02-05T04:13:39.494Z,13.47
2023-02-05T04:16:06.665Z,10.10
2023-02-05T04:18:33.788Z,7.23
2023-02-05T04:21:01.698Z,8.10
2023-02-05T04:23:28.812Z,13.20
2023-02-05T04:25:56.072Z,11.43
2023-02-05T04:28:23.258Z,13.37
2023-02-05T04:30:50.445Z,12.57
2023-02-05T04:33:17.666Z,10.97
2023-02-05T04:35:44.793Z,9.63
2023-02-05T04:38:11.981Z,14.20
2023-02-05T04:40:39.099Z,11.93
2023-02-05T04:43:06.282Z,12.47
2023-02-05T04:45:33.783Z,11.23
2023-02-05T04:48:01.272Z,23.43
2023-02-05T04:50:28.523Z,16.77
2023-02-05T04:52:55.815Z,18.80
2023-02-05T04:55:23.086Z,18.33
2023-02-05T04:57:52.533Z,43.27
2023-02-05T05:00:20.104Z,37.93
2023-02-05T05:02:47.304Z,39.13
2023-02-05T05:05:14.465Z,46.07
2023-02-05T05:07:41.614Z,38.07
2023-02-05T05:10:09.004Z,62.43
2023-02-05T05:12:36.348Z,65.47
2023-02-05T05:15:04.116Z,58.07
2023-02-05T05:17:31.297Z,54.37
2023-02-05T05:19:58.448Z,43.63
2023-02-05T05:22:25.589Z,40.70
2023-02-05T05:24:52.732Z,34.07
2023-02-05T05:27:19.942Z,30.37
2023-02-05T05:29:47.078Z,32.37
2023-02-05T05:32:14.484Z,41.63
2023-02-05T05:34:41.597Z,36.53
2023-02-05T05:37:08.701Z,40.43
2023-02-05T05:39:54.671Z,43.77
2023-02-05T05:42:40.522Z,37.23
2023-02-05T05:45:07.822Z,43.50
2023-02-05T05:47:34.948Z,47.50
2023-02-05T05:50:02.139Z,52.37
2023-02-05T05:52:31.517Z,47.93
2023-02-05T05:54:59.530Z,50.57
2023-02-05T05:57:26.658Z,57.97
2023-02-05T05:59:54.319Z,61.13
2023-02-05T06:02:21.454Z,56.27
2023-02-05T06:04:48.730Z,60.10
2023-02-05T06:07:15.935Z,71.93
2023-02-05T06:09:43.087Z,57.20
2023-02-05T06:12:11.729Z,66.27
2023-02-05T06:14:39.035Z,73.07
2023-02-05T06:17:07.347Z,75.60
2023-02-05T06:19:34.464Z,76.57
2023-02-05T06:22:01.648Z,75.30
2023-02-05T06:24:30.931Z,74.63
2023-02-05T06:26:58.173Z,79.83
2023-02-05T06:29:25.402Z,79.67
2023-02-05T06:31:52.653Z,67.97
2023-02-05T06:34:19.863Z,53.20
2023-02-05T06:36:47.025Z,62.97
2023-02-05T06:39:14.136Z,59.13
2023-02-05T06:41:41.253Z,57.63
2023-02-05T06:44:08.523Z,35.50
2023-02-05T06:46:35.676Z,25.63
2023-02-05T06:49:02.826Z,18.57
2023-02-05T06:51:29.982Z,21.17
2023-02-05T06:53:57.484Z,15.17
2023-02-05T06:56:24.919Z,21.57
2023-02-05T06:58:52.229Z,16.83
2023-02-05T07:01:19.518Z,22.17
2023-02-05T07:03:48.498Z,16.53
2023-02-05T07:06:15.681Z,18.43
2023-02-05T07:08:43.015Z,23.90
2023-02-05T07:11:10.139Z,23.63
2023-02-05T07:13:37.288Z,27.77
2023-02-05T07:16:05.061Z,39.10
2023-02-05T07:18:33.094Z,40.70
2023-02-05T07:21:00.297Z,34.20
2023-02-05T07:23:27.432Z,38.27
2023-02-05T07:25:54.536Z,46.90
2023-02-05T07:28:21.688Z,34.63
2023-02-05T07:30:49.788Z,30.67
2023-02-05T07:33:17.404Z,33.50
2023-02-05T07:35:44.566Z,43.60
2023-02-05T07:38:11.736Z,51.60
2023-02-05T07:40:38.863Z,42.33
2023-02-05T07:43:06.024Z,39.53
2023-02-05T07:45:33.523Z,41.63
2023-02-05T07:48:00.891Z,38.40
2023-02-05T07:50:28.125Z,67.27
2023-02-05T07:52:55.413Z,52.80
2023-02-05T07:55:22.533Z,38.83
2023-02-05T07:57:49.720Z,32.93
2023-02-05T08:00:16.894Z,25.33
2023-02-05T08:02:44.144Z,21.67
2023-02-05T08:05:11.301Z,16.17
2023-02-05T08:07:38.798Z,17.13
2023-02-05T08:10:06.116Z,13.90
2023-02-05T08:12:33.268Z,13.63
2023-02-05T08:15:00.427Z,17.10
2023-02-05T08:17:27.578Z,10.80
2023-02-05T08:19:54.745Z,16.73
2023-02-05T08:22:21.868Z,22.50
2023-02-05T08:24:49.047Z,21.77
2023-02-05T08:27:16.203Z,25.70
2023-02-05T08:29:43.355Z,31.47
2023-02-05T08:32:10.496Z,29.77
2023-02-05T08:34:38.233Z,16.13
2023-02-05T08:37:05.431Z,23.10
2023-02-05T08:39:32.580Z,20.47
2023-02-05T08:41:59.751Z,11.20
2023-02-05T08:44:26.872Z,12.33
2023-02-05T08:46:53.992Z,14.63
2023-02-05T08:49:21.149Z,68.27
2023-02-05T08:51:48.446Z,34.13
2023-02-05T08:54:15.633Z,8.43
2023-02-05T08:56:43.267Z,11.37
2023-02-05T08:59:10.536Z,14.43
2023-02-05T09:01:38.167Z,17.80
2023-02-05T09:04:05.557Z,12.63
2023-02-05T09:06:32.673Z,10.00
2023-02-05T09:08:59.779Z,14.70
2023-02-05T09:11:27.109Z,11.33
2023-02-05T09:13:54.479Z,9.93
2023-02-05T09:16:21.652Z,9.77
2023-02-05T09:18:48.877Z,12.57
2023-02-05T09:21:16.119Z,11.93
2023-02-05T09:23:43.244Z,19.37
2023-02-05T09:26:10.419Z,23.37
2023-02-05T09:28:37.605Z,25.00
2023-02-05T09:31:12.089Z,23.03
2023-02-05T09:33:39.302Z,17.30
2023-02-05T09:36:09.919Z,9.27
2023-02-05T09:38:37.228Z,11.20
2023-02-05T09:41:06.392Z,17.53
2023-02-05T09:43:37.646Z,20.13
2023-02-05T09:46:23.617Z,34.43
2023-02-05T09:49:03.047Z,18.57
2023-02-05T09:51:34.557Z,12.83
2023-02-05T09:54:04.433Z,9.97
2023-02-05T09:56:31.959Z,7.93
2023-02-05T09:58:59.150Z,8.67
2023-02-05T10:01:32.686Z,8.80
2023-02-05T10:04:00.850Z,8.93
2023-02-05T10:06:46.589Z,13.10
2023-02-05T10:09:31.793Z,10.57
2023-02-05T10:12:17.446Z,28.97
2023-02-05T10:14:56.323Z,23.27
2023-02-05T10:17:42.291Z,22.17
2023-02-05T10:20:18.643Z,27.20
2023-02-05T10:23:05.538Z,14.77
2023-02-05T10:25:36.066Z,14.90
2023-02-05T10:28:03.304Z,15.90
2023-02-05T10:30:37.592Z,23.10
2023-02-05T10:33:20.456Z,32.90
2023-02-05T10:35:52.174Z,13.70
2023-02-05T10:38:26.222Z,16.70
2023-02-05T10:41:00.242Z,21.67
2023-02-05T10:43:34.143Z,8.83
2023-02-05T10:46:01.301Z,9.50
2023-02-05T10:48:31.814Z,20.70
2023-02-05T10:51:03.330Z,17.60
2023-02-05T10:53:30.635Z,11.97
2023-02-05T10:55:58.129Z,8.60
2023-02-05T10:58:25.258Z,9.50
2023-02-05T11:00:52.600Z,10.10
2023-02-05T11:03:19.718Z,10.83
2023-02-05T11:05:47.171Z,6.40
2023-02-05T11:08:33.578Z,8.93
2023-02-05T11:11:00.750Z,9.40
2023-02-05T11:13:28.173Z,21.00
2023-02-05T11:16:03.387Z,25.20
2023-02-05T11:18:31.412Z,10.07
2023-02-05T11:20:59.483Z,21.40
2023-02-05T11:23:27.193Z,15.60
2023-02-05T11:25:55.217Z,22.80
2023-02-05T11:28:31.941Z,13.63
2023-02-05T11:30:59.579Z,7.80
2023-02-05T11:33:27.946Z,6.50
2023-02-05T11:36:08.227Z,8.23
2023-02-05T11:38:44.558Z,19.87
2023-02-05T11:41:12.206Z,21.43
2023-02-05T11:43:39.306Z,14.80
2023-02-05T11:46:09.677Z,43.40
2023-02-05T11:48:54.994Z,31.30
2023-02-05T11:51:41.022Z,23.67
2023-02-05T11:54:32.397Z,19.47
2023-02-05T11:57:02.343Z,22.00
2023-02-05T11:59:29.584Z,20.10
2023-02-05T12:01:56.753Z,37.90
2023-02-05T12:04:23.913Z,21.63
2023-02-05T12:06:51.970Z,29.27
2023-02-05T12:09:22.929Z,150.80
2023-02-05T12:12:06.743Z,57.73
2023-02-05T12:14:33.995Z,29.13
2023-02-05T12:17:03.851Z,44.63
2023-02-05T12:19:42.996Z,33.57
2023-02-05T12:22:18.971Z,16.97
2023-02-05T12:24:47.785Z,20.57
2023-02-05T12:27:33.301Z,25.53
2023-02-05T12:30:19.004Z,30.70
2023-02-05T12:32:55.349Z,26.73
2023-02-05T12:35:22.487Z,23.70
2023-02-05T12:37:49.593Z,26.97
2023-02-05T12:40:35.750Z,22.07
2023-02-05T12:43:21.730Z,24.47
2023-02-05T12:46:07.734Z,25.37
2023-02-05T12:48:42.148Z,28.77
2023-02-05T12:51:29.006Z,27.13
2023-02-05T12:53:56.107Z,25.97
2023-02-05T12:56:36.665Z,29.87
2023-02-05T12:59:10.356Z,26.20
2023-02-05T13:01:41.325Z,39.20
2023-02-05T13:04:09.575Z,32.00
2023-02-05T13:06:43.952Z,27.17
2023-02-05T13:09:19.397Z,24.20
2023-02-05T13:11:57.560Z,22.23
2023-02-05T13:14:26.577Z,59.67
2023-02-05T13:16:55.347Z,137.07
2023-02-05T13:19:25.990Z,128.53
2023-02-05T13:22:11.785Z,100.10
2023-02-05T13:24:57.683Z,184.50
2023-02-05T13:27:48.106Z,30.57
2023-02-05T13:30:17.410Z,69.43
2023-02-05T13:32:44.754Z,93.17
2023-02-05T13:35:12.046Z,83.87
2023-02-05T13:37:52.816Z,210.20
2023-02-05T13:40:22.728Z,118.03
2023-02-05T13:42:57.553Z,57.93
2023-02-05T13:45:24.851Z,65.83
2023-02-05T13:48:00.857Z,54.63
2023-02-05T13:50:34.158Z,78.63
2023-02-05T13:53:01.809Z,64.03
2023-02-05T13:55:28.920Z,60.43
2023-02-05T13:58:11.141Z,103.53
2023-02-05T14:00:39.112Z,76.47
2023-02-05T14:03:08.492Z,82.77
2023-02-05T14:05:36.968Z,63.30
2023-02-05T14:08:04.173Z,95.77
2023-02-05T14:10:35.504Z,54.40
2023-02-05T14:13:34.206Z,72.50
2023-02-05T14:16:21.615Z,114.07
2023-02-05T14:18:49.692Z,46.30
2023-02-05T14:21:32.430Z,28.50
2023-02-05T14:24:00.199Z,33.37
2023-02-05T14:26:46.081Z,28.77
2023-02-05T14:29:31.981Z,14.10
2023-02-05T14:31:59.152Z,65.43
2023-02-05T14:34:36.390Z,49.57
2023-02-05T14:37:03.596Z,21.27
2023-02-05T14:39:33.413Z,19.53
2023-02-05T14:42:01.535Z,14.00
2023-02-05T14:44:34.792Z,12.63
2023-02-05T14:47:05.778Z,11.73
2023-02-05T14:49:37.832Z,10.10
2023-02-05T14:52:07.716Z,11.40
2023-02-05T14:54:37.140Z,13.17
2023-02-05T14:57:13.415Z,10.90
2023-02-05T14:59:44.713Z,13.17
2023-02-05T15:02:30.682Z,11.97
2023-02-05T15:04:57.814Z,15.00
2023-02-05T15:07:25.458Z,13.87
2023-02-05T15:10:02.283Z,12.80
2023-02-05T15:12:34.849Z,13.60
2023-02-05T15:15:01.955Z,10.57
2023-02-05T15:17:32.709Z,17.97
2023-02-05T15:20:04.554Z,30.37
2023-02-05T15:22:45.246Z,22.10
2023-02-05T15:25:29.435Z,19.10
2023-02-05T15:27:58.329Z,37.43
2023-02-05T15:30:26.414Z,38.67
2023-02-05T15:32:54.837Z,55.30
2023-02-05T15:35:26.130Z,49.33
2023-02-05T15:37:56.900Z,115.67
2023-02-05T15:40:25.464Z,148.93
2023-02-05T15:42:59.508Z,116.80
2023-02-05T15:45:27.636Z,341.27
2023-02-05T15:48:18.285Z,315.57
2023-02-05T15:51:05.557Z,315.27
2023-02-05T15:53:41.461Z,231.07
2023-02-05T15:56:16.436Z,170.37
2023-02-05T15:58:46.772Z,138.33
2023-02-05T16:01:22.349Z,135.33
2023-02-05T16:03:49.575Z,131.47
2023-02-05T16:06:20.610Z,131.23
2023-02-05T16:08:48.224Z,157.13
2023-02-05T16:11:26.083Z,202.63
2023-02-05T16:14:06.161Z,167.47
2023-02-05T16:16:33.566Z,197.43
2023-02-05T16:19:01.023Z,213.53
2023-02-05T16:21:31.238Z,202.27
2023-02-05T16:24:01.918Z,147.20
2023-02-05T16:26:32.112Z,123.67
2023-02-05T16:29:00.217Z,99.97
2023-02-05T16:31:27.439Z,103.97
2023-02-05T16:33:57.720Z,158.60
2023-02-05T16:36:25.904Z,197.33
2023-02-05T16:39:19.323Z,167.20
2023-02-05T16:41:48.702Z,136.53
2023-02-05T16:44:29.928Z,183.50
2023-02-05T16:47:07.052Z,158.60
2023-02-05T16:49:34.269Z,132.63
2023-02-05T16:52:01.389Z,87.33
2023-02-05T16:54:29.568Z,86.77
2023-02-05T16:56:58.823Z,89.87
2023-02-05T16:59:26.934Z,87.77
2023-02-05T17:01:54.106Z,91.70
2023-02-05T17:04:26.627Z,109.23
2023-02-05T17:06:57.458Z,107.13
2023-02-05T17:09:37.623Z,96.90
2023-02-05T17:12:23.151Z,115.73
2023-02-05T17:15:00.032Z,97.00
2023-02-05T17:17:27.467Z,107.83
2023-02-05T17:20:08.264Z,97.93
2023-02-05T17:22:35.398Z,80.20
2023-02-05T17:25:05.035Z,88.33
2023-02-05T17:27:32.976Z,97.57
2023-02-05T17:30:00.330Z,182.67
2023-02-05T17:32:27.579Z,127.80
2023-02-05T17:34:55.285Z,212.27
2023-02-05T17:37:22.455Z,145.53
2023-02-05T17:39:51.461Z,121.93
2023-02-05T17:42:22.365Z,126.30
2023-02-05T17:44:49.487Z,130.73
2023-02-05T17:47:16.625Z,119.70
2023-02-05T17:49:43.790Z,151.43
2023-02-05T17:52:10.931Z,142.33
2023-02-05T17:54:38.198Z,135.57
2023-02-05T17:57:18.621Z,145.27
2023-02-05T17:59:46.005Z,152.80
2023-02-05T18:02:13.414Z,143.20
2023-02-05T18:04:40.728Z,201.00
2023-02-05T18:07:10.929Z,199.57
2023-02-05T18:09:38.059Z,253.23
2023-02-05T18:12:06.011Z,309.90
2023-02-05T18:14:33.125Z,273.10
2023-02-05T18:17:00.249Z,173.63
2023-02-05T18:19:29.422Z,192.20
2023-02-05T18:21:56.544Z,243.73
2023-02-05T18:24:23.649Z,321.53
2023-02-05T18:26:52.698Z,305.43
2023-02-05T18:29:21.420Z,243.43
2023-02-05T18:31:48.906Z,188.30
2023-02-05T18:34:16.129Z,154.53
2023-02-05T18:36:43.271Z,190.57
2023-02-05T18:39:10.446Z,88.97
2023-02-05T18:41:38.888Z,76.27
2023-02-05T18:44:06.086Z,67.33
2023-02-05T18:46:34.883Z,65.30
2023-02-05T18:49:02.107Z,87.43
2023-02-05T18:51:29.281Z,82.77
2023-02-05T18:53:56.444Z,98.20
2023-02-05T18:56:25.812Z,91.80
2023-02-05T18:58:59.241Z,91.87
2023-02-05T19:01:26.754Z,94.73
2023-02-05T19:03:54.672Z,141.23
2023-02-05T19:06:22.021Z,95.27
2023-02-05T19:08:49.429Z,78.67
2023-02-05T19:11:18.604Z,73.87
2023-02-05T19:13:45.739Z,86.90
2023-02-05T19:16:14.245Z,97.53
2023-02-05T19:18:41.791Z,152.27
2023-02-05T19:21:13.272Z,153.17
2023-02-05T19:23:40.535Z,132.77
2023-02-05T19:26:20.356Z,133.30
2023-02-05T19:28:47.673Z,116.27
2023-02-05T19:31:15.647Z,105.70
2023-02-05T19:33:42.927Z,119.20
2023-02-05T19:36:10.444Z,101.60
2023-02-05T19:38:37.978Z,122.87
2023-02-05T19:41:12.620Z,123.23
2023-02-05T19:43:40.552Z,111.23
2023-02-05T19:46:08.247Z,115.90
2023-02-05T19:48:35.463Z,127.27
2023-02-05T19:51:06.251Z,118.10
2023-02-05T19:53:33.738Z,130.63
2023-02-05T19:56:07.876Z,127.87
2023-02-05T19:58:35.309Z,99.77
2023-02-05T20:01:02.408Z,143.43
2023-02-05T20:03:29.825Z,127.90
2023-02-05T20:06:00.968Z,132.60
2023-02-05T20:08:29.373Z,123.97
2023-02-05T20:10:59.976Z,126.27
2023-02-05T20:13:27.745Z,123.60
2023-02-05T20:15:55.010Z,113.33
2023-02-05T20:18:22.238Z,106.03
2023-02-05T20:20:49.557Z,130.13
2023-02-05T20:23:17.612Z,133.57
2023-02-05T20:25:44.756Z,129.90
2023-02-05T20:28:11.972Z,167.50
2023-02-05T20:31:08.016Z,154.30
2023-02-05T20:33:35.175Z,139.47
2023-02-05T20:36:09.157Z,138.90
2023-02-05T20:38:36.281Z,128.90
2023-02-05T20:41:16.468Z,163.83
2023-02-05T20:43:43.774Z,291.40
2023-02-05T20:46:11.024Z,324.63
2023-02-05T20:48:38.671Z,294.33
2023-02-05T20:51:06.761Z,279.10
2023-02-05T20:53:33.928Z,280.23
2023-02-05T20:56:02.035Z,246.87
2023-02-05T20:58:29.166Z,257.80
2023-02-05T21:00:56.465Z,236.93
2023-02-05T21:03:23.732Z,140.87
2023-02-05T21:05:50.912Z,136.33
2023-02-05T21:08:18.047Z,145.03
2023-02-05T21:10:45.191Z,149.80
2023-02-05T21:13:12.321Z,163.97
2023-02-05T21:15:39.444Z,168.00
2023-02-05T21:18:06.708Z,169.83
2023-02-05T21:20:34.093Z,194.67
2023-02-05T21:23:01.352Z,210.47
2023-02-05T21:25:28.576Z,167.87
2023-02-05T21:28:07.426Z,167.33
2023-02-05T21:30:35.115Z,183.50
2023-02-05T21:33:02.382Z,180.97
2023-02-05T21:35:29.742Z,176.03
2023-02-05T21:37:57.002Z,153.67
2023-02-05T21:40:24.161Z,147.83
2023-02-05T21:42:51.310Z,148.20
2023-02-05T21:45:18.472Z,157.63
2023-02-05T21:47:45.649Z,175.83
2023-02-05T21:50:12.824Z,190.50
2023-02-05T21:52:40.036Z,177.20
2023-02-05T21:55:07.381Z,179.80
2023-02-05T21:57:34.486Z,204.07
2023-02-05T22:00:04.136Z,165.07
2023-02-05T22:02:31.282Z,180.90
2023-02-05T22:04:58.392Z,166.67
2023-02-05T22:07:25.679Z,148.50
2023-02-05T22:09:52.793Z,149.10
2023-02-05T22:12:19.923Z,141.00
2023-02-05T22:14:48.122Z,144.60
2023-02-05T22:17:15.236Z,147.07
2023-02-05T22:19:43.202Z,159.60
2023-02-05T22:22:10.365Z,172.60
2023-02-05T22:24:37.536Z,201.20
2023-02-05T22:27:04.837Z,193.90
2023-02-05T22:29:32.013Z,167.23
2023-02-05T22:31:59.200Z,164.13
2023-02-05T22:34:26.353Z,173.53
2023-02-05T22:36:53.495Z,167.17
2023-02-05T22:39:20.605Z,149.93
2023-02-05T22:41:47.713Z,136.97
2023-02-05T22:44:14.859Z,149.13
2023-02-05T22:46:43.012Z,156.43
2023-02-05T22:49:10.700Z,177.40
2023-02-05T22:51:38.748Z,218.40
2023-02-05T22:54:06.054Z,224.20
2023-02-05T22:56:33.223Z,207.73
2023-02-05T22:59:03.045Z,199.00
2023-02-05T23:01:31.673Z,191.83
2023-02-05T23:03:59.037Z,193.47
2023-02-05T23:06:27.005Z,215.97
2023-02-05T23:08:54.121Z,206.03
2023-02-05T23:11:21.411Z,213.73
2023-02-05T23:13:48.712Z,205.30
2023-02-05T23:16:16.971Z,164.57
2023-02-05T23:18:44.186Z,178.43
2023-02-05T23:21:12.136Z,161.60
2023-02-05T23:23:39.268Z,179.03
2023-02-05T23:26:07.431Z,178.53
2023-02-05T23:28:34.597Z,172.20
2023-02-05T23:31:01.891Z,184.67
2023-02-05T23:33:29.206Z,231.63
2023-02-05T23:35:56.386Z,163.83
2023-02-05T23:38:25.121Z,150.23
2023-02-05T23:40:52.795Z,143.33
2023-02-05T23:43:20.015Z,139.03
2023-02-05T23:45:47.154Z,174.73
2023-02-05T23:48:14.280Z,182.53
2023-02-05T23:50:42.524Z,161.50
2023-02-05T23:53:09.818Z,150.67
2023-02-05T23:55:40.380Z,139.67
2023-02-05T23:58:07.655Z,126.53
